createdAt,value
2022-09-28T00:03:08.948Z,98479.13
2022-09-28T00:08:10.500Z,98483.59
2022-09-28T00:13:12.010Z,98468.31
2022-09-28T00:18:13.539Z,98476.22
2022-09-28T00:23:15.154Z,98466.91
2022-09-28T00:28:16.674Z,98465.06
2022-09-28T00:33:19.219Z,98459.88
2022-09-28T00:38:20.816Z,98464.72
2022-09-28T00:43:23.796Z,98459.75
2022-09-28T00:48:28.285Z,98450.19
2022-09-28T00:53:32.039Z,98443.94
2022-09-28T00:58:36.477Z,98442.94
2022-09-28T01:03:38.750Z,98443.94
2022-09-28T01:08:40.554Z,98441.09
2022-09-28T01:13:42.243Z,98434.84
2022-09-28T01:19:02.528Z,98429.03
2022-09-28T01:24:45.451Z,98422.03
2022-09-28T01:29:55.909Z,98429.22
2022-09-28T01:35:06.870Z,98428.19
2022-09-28T01:40:09.555Z,98415.84
2022-09-28T01:45:17.070Z,98410.31
2022-09-28T01:50:21.642Z,98410.81
2022-09-28T01:55:33.938Z,98406.56
2022-09-28T02:00:41.731Z,98399.41
2022-09-28T02:05:52.701Z,98404.94
2022-09-28T02:11:08.082Z,98404.53
2022-09-28T02:16:22.034Z,98400.78
2022-09-28T02:21:44.558Z,98404.19
2022-09-28T02:26:50.150Z,98404.41
2022-09-28T02:31:51.872Z,98391.16
2022-09-28T02:36:54.239Z,98398.72
2022-09-28T02:42:13.018Z,98393.25
2022-09-28T02:47:14.585Z,98378.00
2022-09-28T02:52:24.912Z,98383.16
2022-09-28T02:57:59.643Z,98368.88
2022-09-28T03:03:38.327Z,98367.63
2022-09-28T03:09:03.764Z,98366.44
2022-09-28T03:14:09.316Z,98365.59
2022-09-28T03:19:29.338Z,98347.09
2022-09-28T03:24:31.031Z,98352.41
2022-09-28T03:29:33.102Z,98355.50
2022-09-28T03:34:38.601Z,98339.06
2022-09-28T03:39:40.631Z,98342.03
2022-09-28T03:44:42.251Z,98352.34
2022-09-28T03:49:44.208Z,98347.78
2022-09-28T03:54:49.043Z,98353.88
2022-09-28T03:59:51.131Z,98350.34
2022-09-28T04:04:52.741Z,98349.34
2022-09-28T04:09:54.867Z,98336.38
2022-09-28T04:14:56.553Z,98326.88
2022-09-28T04:19:58.109Z,98311.66
2022-09-28T04:25:14.792Z,98319.28
2022-09-28T04:30:16.925Z,98321.97
2022-09-28T04:35:20.154Z,98311.03
2022-09-28T04:40:22.322Z,98299.28
2022-09-28T04:45:27.001Z,98291.50
2022-09-28T04:50:32.428Z,98272.66
2022-09-28T04:56:00.313Z,98257.06
2022-09-28T05:01:06.816Z,98248.19
2022-09-28T05:06:30.582Z,98261.38
2022-09-28T05:11:37.372Z,98249.81
2022-09-28T05:16:44.593Z,98244.84
2022-09-28T05:22:11.516Z,98247.25
2022-09-28T05:27:16.746Z,98234.97
2022-09-28T05:32:21.774Z,98242.38
2022-09-28T05:37:41.190Z,98239.72
2022-09-28T05:42:43.238Z,98229.84
2022-09-28T05:47:48.245Z,98234.78
2022-09-28T05:53:08.388Z,98210.69
2022-09-28T05:58:11.617Z,98204.72
2022-09-28T06:03:14.296Z,98205.13
2022-09-28T06:08:16.029Z,98188.84
2022-09-28T06:13:21.727Z,98165.56
2022-09-28T06:18:24.043Z,98165.38
2022-09-28T06:23:57.701Z,98160.00
2022-09-28T06:29:03.393Z,98158.56
2022-09-28T06:34:05.084Z,98150.91
2022-09-28T06:39:07.443Z,98164.13
2022-09-28T06:44:10.756Z,98167.63
2022-09-28T06:49:38.680Z,98153.38
2022-09-28T06:55:09.217Z,98163.06
2022-09-28T07:00:17.019Z,98157.50
2022-09-28T07:05:24.111Z,98159.16
2022-09-28T07:10:46.058Z,98166.97
2022-09-28T07:15:59.612Z,98155.84
2022-09-28T07:21:04.236Z,98164.50
2022-09-28T07:26:08.587Z,98176.47
2022-09-28T07:31:33.695Z,98191.72
2022-09-28T07:37:02.230Z,98178.75
2022-09-28T07:42:04.051Z,98170.69
2022-09-28T07:47:07.041Z,98168.41
2022-09-28T07:52:46.573Z,98173.13
2022-09-28T07:58:11.126Z,98177.28
2022-09-28T08:03:35.415Z,98172.09
2022-09-28T08:08:37.072Z,98183.03
2022-09-28T08:13:40.085Z,98183.66
2022-09-28T08:19:01.976Z,98188.19
2022-09-28T08:24:03.709Z,98186.97
2022-09-28T08:29:06.425Z,98193.38
2022-09-28T08:34:31.096Z,98193.75
2022-09-28T08:39:50.918Z,98201.41
2022-09-28T08:45:08.406Z,98204.91
2022-09-28T08:50:28.714Z,98195.84
2022-09-28T08:55:50.406Z,98191.72
2022-09-28T09:00:53.090Z,98202.44
2022-09-28T09:06:04.500Z,98190.25
2022-09-28T09:11:44.329Z,98210.47
2022-09-28T09:17:00.920Z,98202.84
2022-09-28T09:22:54.916Z,98194.56
2022-09-28T09:28:24.087Z,98189.81
2022-09-28T09:33:59.012Z,98188.34
2022-09-28T09:39:51.281Z,98183.84
2022-09-28T09:45:14.641Z,98179.38
2022-09-28T09:50:25.191Z,98180.59
2022-09-28T09:55:43.383Z,98179.13
2022-09-28T10:01:08.646Z,98177.09
2022-09-28T10:06:43.627Z,98176.09
2022-09-28T10:11:52.057Z,98168.66
2022-09-28T10:16:57.142Z,98162.22
2022-09-28T10:22:21.094Z,98160.81
2022-09-28T10:27:35.193Z,98156.28
2022-09-28T10:32:44.985Z,98151.38
2022-09-28T10:38:07.729Z,98136.88
2022-09-28T10:43:34.548Z,98135.03
2022-09-28T10:48:58.885Z,98143.53
2022-09-28T10:54:04.382Z,98141.44
2022-09-28T10:59:29.616Z,98137.72
2022-09-28T11:04:56.288Z,98125.16
2022-09-28T11:09:59.581Z,98138.38
2022-09-28T11:15:04.531Z,98138.53
2022-09-28T11:20:27.983Z,98150.09
2022-09-28T11:25:32.703Z,98147.59
2022-09-28T11:30:40.794Z,98126.53
2022-09-28T11:36:14.740Z,98139.03
2022-09-28T11:41:44.173Z,98153.72
2022-09-28T11:47:03.914Z,98150.31
2022-09-28T11:52:16.636Z,98144.16
2022-09-28T11:57:22.337Z,98150.22
2022-09-28T12:02:32.903Z,98155.50
2022-09-28T12:07:44.254Z,98152.19
2022-09-28T12:13:20.179Z,98159.09
2022-09-28T12:18:37.846Z,98156.84
2022-09-28T12:23:41.596Z,98173.72
2022-09-28T12:28:49.110Z,98173.72
2022-09-28T12:33:51.697Z,98180.72
2022-09-28T12:39:18.137Z,98182.03
2022-09-28T12:44:59.499Z,98188.59
2022-09-28T12:50:37.537Z,98197.47
2022-09-28T12:55:58.057Z,98195.75
2022-09-28T13:01:18.927Z,98202.59
2022-09-28T13:06:26.178Z,98212.22
2022-09-28T13:11:46.916Z,98224.78
2022-09-28T13:17:01.374Z,98224.13
2022-09-28T13:22:02.854Z,98232.84
2022-09-28T13:27:10.339Z,98237.31
2022-09-28T13:32:12.796Z,98243.09
2022-09-28T13:37:18.873Z,98241.34
2022-09-28T13:42:47.556Z,98246.84
2022-09-28T13:48:01.735Z,98252.88
2022-09-28T13:53:21.631Z,98256.59
2022-09-28T13:58:36.701Z,98265.09
2022-09-28T14:03:44.747Z,98283.63
2022-09-28T14:08:52.101Z,98285.75
2022-09-28T14:14:08.673Z,98287.78
2022-09-28T14:19:18.193Z,98298.09
2022-09-28T14:24:38.877Z,98308.00
2022-09-28T14:29:40.592Z,98312.94
2022-09-28T14:34:44.267Z,98323.28
2022-09-28T14:40:05.274Z,98328.00
2022-09-28T14:45:07.274Z,98326.56
2022-09-28T14:50:21.174Z,98330.28
2022-09-28T14:55:51.879Z,98325.75
2022-09-28T15:01:17.214Z,98324.09
2022-09-28T15:06:21.422Z,98326.97
2022-09-28T15:11:25.280Z,98335.44
2022-09-28T15:16:30.563Z,98348.00
2022-09-28T15:21:40.194Z,98349.47
2022-09-28T15:26:48.087Z,98350.91
2022-09-28T15:31:54.137Z,98352.16
2022-09-28T15:36:56.417Z,98359.56
2022-09-28T15:41:59.485Z,98359.56
2022-09-28T15:47:10.958Z,98371.34
2022-09-28T15:52:27.594Z,98371.53
2022-09-28T15:57:36.933Z,98383.50
2022-09-28T16:02:38.611Z,98385.34
2022-09-28T16:07:41.564Z,98395.38
2022-09-28T16:12:56.441Z,98402.03
2022-09-28T16:18:02.887Z,98412.13
2022-09-28T16:23:16.860Z,98413.16
2022-09-28T16:28:55.290Z,98413.53
2022-09-28T16:34:11.526Z,98430.81
2022-09-28T16:39:14.597Z,98437.09
2022-09-28T16:44:23.558Z,98436.88
2022-09-28T16:49:25.611Z,98447.13
2022-09-28T16:54:47.466Z,98450.22
2022-09-28T16:59:48.987Z,98442.78
2022-09-28T17:04:51.274Z,98454.97
2022-09-28T17:09:52.839Z,98457.00
2022-09-28T17:14:54.843Z,98462.47
2022-09-28T17:19:56.386Z,98460.44
2022-09-28T17:24:57.897Z,98471.41
2022-09-28T17:29:59.433Z,98471.34
2022-09-28T17:35:23.203Z,98482.06
2022-09-28T17:40:28.372Z,98483.34
2022-09-28T17:45:31.345Z,98492.72
2022-09-28T17:50:34.898Z,98489.44
2022-09-28T17:55:37.996Z,98499.97
2022-09-28T18:00:40.240Z,98498.09
2022-09-28T18:05:43.327Z,98501.25
2022-09-28T18:10:46.970Z,98508.56
2022-09-28T18:15:51.467Z,98509.41
2022-09-28T18:20:53.283Z,98505.28
2022-09-28T18:25:54.791Z,98506.53
2022-09-28T18:30:56.692Z,98516.88
2022-09-28T18:35:58.260Z,98521.06
2022-09-28T18:41:10.193Z,98523.06
2022-09-28T18:46:11.853Z,98523.59
2022-09-28T18:51:13.754Z,98532.13
2022-09-28T18:56:20.899Z,98532.78
2022-09-28T19:01:31.039Z,98533.50
2022-09-28T19:06:34.390Z,98542.06
2022-09-28T19:11:36.380Z,98534.44
2022-09-28T19:16:37.911Z,98536.09
2022-09-28T19:21:40.627Z,98539.88
2022-09-28T19:26:42.520Z,98537.09
2022-09-28T19:31:44.076Z,98541.97
2022-09-28T19:36:45.605Z,98532.44
2022-09-28T19:41:51.353Z,98538.50
2022-09-28T19:46:58.495Z,98545.63
2022-09-28T19:52:16.177Z,98538.81
2022-09-28T19:57:19.530Z,98540.53
2022-09-28T20:02:21.430Z,98542.97
2022-09-28T20:07:23.003Z,98550.63
2022-09-28T20:12:24.714Z,98553.00
2022-09-28T20:17:27.476Z,98560.81
2022-09-28T20:22:29.397Z,98566.47
2022-09-28T20:27:30.924Z,98572.47
2022-09-28T20:32:33.320Z,98588.31
2022-09-28T20:37:34.821Z,98583.81
2022-09-28T20:42:37.704Z,98589.31
2022-09-28T20:47:40.505Z,98590.22
2022-09-28T20:52:42.074Z,98608.69
2022-09-28T20:57:43.913Z,98611.06
2022-09-28T21:02:45.504Z,98610.50
2022-09-28T21:07:47.059Z,98618.75
2022-09-28T21:12:53.058Z,98629.81
2022-09-28T21:17:54.556Z,98630.88
2022-09-28T21:22:56.128Z,98633.16
2022-09-28T21:27:57.626Z,98636.75
2022-09-28T21:33:01.428Z,98639.78
2022-09-28T21:38:03.586Z,98643.00
2022-09-28T21:43:05.227Z,98646.75
2022-09-28T21:48:06.969Z,98649.25
2022-09-28T21:53:08.476Z,98652.69
2022-09-28T21:58:10.099Z,98657.13
2022-09-28T22:03:11.762Z,98652.97
2022-09-28T22:08:13.349Z,98651.31
2022-09-28T22:13:14.981Z,98655.34
2022-09-28T22:18:16.566Z,98657.09
2022-09-28T22:23:18.094Z,98659.06
2022-09-28T22:28:19.609Z,98664.75
2022-09-28T22:33:21.218Z,98667.63
2022-09-28T22:38:24.306Z,98666.91
2022-09-28T22:43:26.717Z,98673.25
2022-09-28T22:48:28.396Z,98675.84
2022-09-28T22:53:30.125Z,98669.31
2022-09-28T22:58:32.782Z,98678.59
2022-09-28T23:03:34.837Z,98685.97
2022-09-28T23:08:36.593Z,98683.94
2022-09-28T23:13:38.364Z,98688.91
2022-09-28T23:18:42.773Z,98676.56
2022-09-28T23:23:45.610Z,98695.25
2022-09-28T23:28:47.322Z,98697.66
2022-09-28T23:33:48.918Z,98689.28
2022-09-28T23:38:50.450Z,98704.09
2022-09-28T23:43:52.080Z,98699.56
2022-09-28T23:48:53.770Z,98698.84
2022-09-28T23:53:55.348Z,98706.97
2022-09-28T23:58:57.011Z,98704.22
